createdAt,value
2019-06-27T00:01:22.327Z,14.90
2019-06-27T00:03:53.024Z,14.20
2019-06-27T00:06:23.741Z,14.80
2019-06-27T00:08:54.447Z,12.43
2019-06-27T00:11:25.177Z,13.67
2019-06-27T00:13:56.019Z,15.70
2019-06-27T00:16:26.757Z,15.30
2019-06-27T00:18:57.601Z,14.63
2019-06-27T00:21:28.331Z,14.07
2019-06-27T00:23:59.111Z,14.20
2019-06-27T00:26:29.918Z,14.97
2019-06-27T00:29:00.643Z,15.33
2019-06-27T00:31:31.627Z,13.97
2019-06-27T00:34:02.383Z,15.60
2019-06-27T00:36:33.140Z,17.03
2019-06-27T00:39:04.990Z,16.40
2019-06-27T00:41:36.069Z,14.20
2019-06-27T00:44:06.837Z,13.00
2019-06-27T00:46:39.990Z,16.23
2019-06-27T00:49:10.744Z,16.93
2019-06-27T00:51:45.038Z,17.07
2019-06-27T00:54:13.990Z,17.40
2019-06-27T00:56:44.728Z,16.70
2019-06-27T00:59:15.408Z,18.73
2019-06-27T01:01:46.216Z,20.53
2019-06-27T01:04:17.049Z,19.20
2019-06-27T01:06:48.948Z,19.23
2019-06-27T01:09:20.109Z,20.27
2019-06-27T01:11:50.850Z,21.27
2019-06-27T01:14:21.552Z,20.13
2019-06-27T01:16:52.278Z,19.20
2019-06-27T01:19:22.993Z,18.70
2019-06-27T01:21:53.868Z,16.87
2019-06-27T01:24:24.591Z,17.80
2019-06-27T01:26:55.383Z,18.87
2019-06-27T01:29:26.133Z,18.23
2019-06-27T01:31:56.845Z,18.33
2019-06-27T01:34:27.607Z,19.73
2019-06-27T01:36:58.347Z,18.23
2019-06-27T01:39:29.328Z,19.60
2019-06-27T01:42:00.213Z,18.10
2019-06-27T01:44:56.977Z,18.37
2019-06-27T01:47:27.753Z,16.90
2019-06-27T01:49:58.485Z,17.83
2019-06-27T01:52:29.598Z,17.20
2019-06-27T01:55:00.315Z,18.43
2019-06-27T01:57:45.650Z,17.77
2019-06-27T02:00:03.905Z,16.33
2019-06-27T02:02:34.685Z,17.77
2019-06-27T02:05:05.921Z,18.00
2019-06-27T02:07:36.646Z,17.37
2019-06-27T02:10:08.393Z,17.87
2019-06-27T02:12:39.174Z,18.30
2019-06-27T02:15:10.144Z,20.00
2019-06-27T02:17:41.161Z,21.60
2019-06-27T02:20:12.380Z,21.40
2019-06-27T02:22:43.107Z,19.83
2019-06-27T02:25:14.164Z,21.93
2019-06-27T02:27:44.965Z,21.57
2019-06-27T02:30:17.599Z,22.00
2019-06-27T02:32:48.309Z,19.53
2019-06-27T02:35:19.141Z,18.30
2019-06-27T02:37:49.854Z,20.30
2019-06-27T02:40:22.041Z,19.67
2019-06-27T02:42:53.361Z,22.03
2019-06-27T02:45:25.327Z,21.87
2019-06-27T02:47:56.382Z,20.90
2019-06-27T02:50:27.466Z,19.20
2019-06-27T02:52:58.196Z,19.83
2019-06-27T02:55:29.177Z,19.27
2019-06-27T02:58:00.331Z,20.50
2019-06-27T03:00:31.191Z,21.73
2019-06-27T03:03:02.076Z,17.83
2019-06-27T03:05:32.813Z,19.17
2019-06-27T03:08:03.785Z,21.43
2019-06-27T03:10:34.637Z,21.33
2019-06-27T03:13:05.353Z,20.87
2019-06-27T03:15:36.245Z,21.13
2019-06-27T03:18:06.978Z,21.37
2019-06-27T03:20:37.713Z,21.30
2019-06-27T03:23:08.444Z,25.63
2019-06-27T03:25:39.197Z,23.43
2019-06-27T03:28:10.094Z,24.17
2019-06-27T03:30:41.449Z,23.20
2019-06-27T03:33:12.359Z,23.70
2019-06-27T03:35:43.112Z,22.50
2019-06-27T03:38:15.022Z,23.07
2019-06-27T03:40:46.041Z,23.63
2019-06-27T03:43:16.900Z,21.27
2019-06-27T03:45:48.705Z,24.00
2019-06-27T03:48:19.469Z,23.27
2019-06-27T03:50:50.163Z,22.30
2019-06-27T03:53:20.919Z,20.70
2019-06-27T03:55:51.624Z,22.17
2019-06-27T03:58:22.515Z,22.00
2019-06-27T04:00:53.396Z,22.00
2019-06-27T04:03:24.404Z,21.37
2019-06-27T04:05:55.220Z,21.07
2019-06-27T04:08:25.959Z,22.43
2019-06-27T04:10:57.066Z,21.80
2019-06-27T04:13:27.804Z,20.67
2019-06-27T04:15:58.513Z,21.10
2019-06-27T04:18:29.668Z,19.73
2019-06-27T04:21:00.387Z,20.90
2019-06-27T04:23:31.125Z,21.87
2019-06-27T04:26:02.060Z,19.93
2019-06-27T04:28:32.809Z,19.33
2019-06-27T04:31:03.590Z,17.50
2019-06-27T04:33:34.333Z,18.47
2019-06-27T04:36:05.041Z,17.40
2019-06-27T04:38:36.059Z,15.80
2019-06-27T04:41:06.935Z,18.03
2019-06-27T04:43:37.665Z,16.43
2019-06-27T04:46:08.697Z,16.17
2019-06-27T04:48:39.749Z,14.50
2019-06-27T04:51:10.438Z,16.73
2019-06-27T04:53:41.183Z,17.03
2019-06-27T04:56:11.902Z,14.80
2019-06-27T04:58:42.699Z,14.53
2019-06-27T05:01:13.759Z,15.70
2019-06-27T05:03:44.568Z,17.33
2019-06-27T05:06:15.293Z,15.80
2019-06-27T05:08:46.431Z,16.73
2019-06-27T05:11:17.350Z,15.60
2019-06-27T05:13:48.182Z,17.87
2019-06-27T05:16:18.869Z,17.37
2019-06-27T05:18:49.755Z,14.77
2019-06-27T05:21:20.453Z,16.73
2019-06-27T05:23:51.424Z,16.70
2019-06-27T05:26:22.419Z,17.07
2019-06-27T05:28:54.182Z,15.93
2019-06-27T05:31:24.946Z,14.77
2019-06-27T05:33:55.905Z,15.30
2019-06-27T05:36:26.643Z,15.23
2019-06-27T05:38:57.452Z,14.40
2019-06-27T05:41:28.288Z,14.23
2019-06-27T05:43:59.008Z,15.53
2019-06-27T05:46:30.059Z,14.13
2019-06-27T05:49:00.809Z,15.27
2019-06-27T05:51:31.511Z,14.40
2019-06-27T05:54:02.475Z,13.53
2019-06-27T05:56:33.176Z,13.93
2019-06-27T05:59:03.937Z,15.00
2019-06-27T06:01:34.999Z,16.27
2019-06-27T06:04:06.013Z,15.90
2019-06-27T06:06:36.752Z,15.80
2019-06-27T06:09:07.622Z,14.43
2019-06-27T06:11:38.474Z,13.93
2019-06-27T06:14:09.184Z,15.73
2019-06-27T06:16:39.990Z,16.07
2019-06-27T06:19:10.789Z,16.10
2019-06-27T06:21:41.522Z,15.37
2019-06-27T06:24:12.207Z,15.13
2019-06-27T06:26:42.928Z,15.07
2019-06-27T06:29:13.841Z,15.13
2019-06-27T06:31:44.612Z,15.53
2019-06-27T06:34:15.451Z,15.87
2019-06-27T06:36:46.349Z,15.33
2019-06-27T06:39:17.059Z,16.20
2019-06-27T06:41:47.895Z,15.27
2019-06-27T06:44:18.584Z,15.80
2019-06-27T06:46:49.333Z,16.93
2019-06-27T06:49:20.546Z,16.80
2019-06-27T06:51:51.415Z,17.10
2019-06-27T06:54:22.101Z,17.63
2019-06-27T06:56:53.027Z,18.40
2019-06-27T06:59:24.723Z,18.60
2019-06-27T07:01:55.476Z,16.90
2019-06-27T07:04:26.209Z,17.90
2019-06-27T07:06:56.980Z,17.17
2019-06-27T07:09:27.850Z,17.20
2019-06-27T07:11:58.680Z,17.60
2019-06-27T07:14:29.434Z,18.30
2019-06-27T07:17:00.258Z,16.80
2019-06-27T07:19:30.968Z,17.00
2019-06-27T07:22:01.772Z,18.50
2019-06-27T07:24:32.490Z,17.70
2019-06-27T07:27:03.308Z,17.80
2019-06-27T07:29:34.238Z,17.80
2019-06-27T07:32:04.994Z,16.87
2019-06-27T07:34:35.798Z,18.07
2019-06-27T07:37:06.572Z,17.80
2019-06-27T07:39:37.468Z,18.23
2019-06-27T07:42:08.218Z,17.60
2019-06-27T07:44:38.938Z,18.40
2019-06-27T07:47:09.722Z,18.37
2019-06-27T07:49:40.833Z,17.77
2019-06-27T07:52:11.837Z,17.30
2019-06-27T07:54:42.605Z,15.97
2019-06-27T07:57:13.438Z,17.53
2019-06-27T07:59:44.340Z,17.00
2019-06-27T08:02:16.358Z,16.37
2019-06-27T08:04:47.369Z,15.80
2019-06-27T08:07:21.193Z,16.40
2019-06-27T08:09:51.135Z,15.63
2019-06-27T08:12:21.866Z,15.73
2019-06-27T08:14:52.580Z,16.10
2019-06-27T08:17:23.708Z,16.27
2019-06-27T08:19:55.006Z,15.43
2019-06-27T08:22:26.011Z,15.53
2019-06-27T08:24:56.751Z,15.77
2019-06-27T08:27:28.591Z,16.13
2019-06-27T08:29:59.635Z,16.73
2019-06-27T08:32:30.887Z,15.63
2019-06-27T08:35:01.872Z,16.10
2019-06-27T08:37:32.645Z,16.43
2019-06-27T08:40:03.472Z,16.07
2019-06-27T08:42:34.529Z,16.60
2019-06-27T08:45:06.768Z,15.97
2019-06-27T08:47:37.948Z,15.63
2019-06-27T08:50:09.360Z,15.73
2019-06-27T08:52:40.123Z,16.70
2019-06-27T08:55:11.265Z,15.30
2019-06-27T08:57:41.940Z,16.87
2019-06-27T09:00:13.175Z,15.90
2019-06-27T09:02:43.837Z,14.63
2019-06-27T09:05:14.998Z,14.60
2019-06-27T09:07:45.695Z,15.60
2019-06-27T09:10:16.903Z,14.90
2019-06-27T09:12:47.632Z,15.20
2019-06-27T09:15:19.591Z,15.40
2019-06-27T09:17:50.338Z,15.10
2019-06-27T09:20:21.920Z,15.57
2019-06-27T09:22:52.632Z,16.03
2019-06-27T09:25:23.481Z,15.70
2019-06-27T09:27:54.418Z,14.37
2019-06-27T09:30:25.660Z,13.03
2019-06-27T09:32:56.419Z,13.30
2019-06-27T09:35:27.228Z,13.20
2019-06-27T09:37:57.995Z,12.40
2019-06-27T09:40:28.746Z,14.00
2019-06-27T09:42:59.553Z,14.20
2019-06-27T09:45:30.287Z,14.40
2019-06-27T09:48:01.018Z,12.80
2019-06-27T09:50:31.716Z,12.97
2019-06-27T09:53:03.623Z,14.00
2019-06-27T09:55:34.549Z,13.13
2019-06-27T09:58:05.338Z,12.90
2019-06-27T10:00:36.086Z,15.17
2019-06-27T10:03:07.064Z,13.23
2019-06-27T10:05:37.844Z,12.70
2019-06-27T10:08:08.593Z,12.27
2019-06-27T10:10:39.476Z,12.03
2019-06-27T10:13:10.201Z,12.70
2019-06-27T10:15:40.941Z,12.60
2019-06-27T10:18:11.673Z,10.70
2019-06-27T10:20:42.447Z,12.57
2019-06-27T10:23:13.516Z,12.30
2019-06-27T10:25:44.233Z,11.93
2019-06-27T10:28:14.970Z,13.93
2019-06-27T10:30:49.139Z,11.67
2019-06-27T10:33:18.499Z,11.27
2019-06-27T10:35:49.355Z,11.80
2019-06-27T10:38:20.079Z,11.30
2019-06-27T10:40:50.783Z,11.47
2019-06-27T10:43:21.650Z,10.23
2019-06-27T10:45:52.430Z,10.70
2019-06-27T10:48:23.288Z,9.87
2019-06-27T10:50:54.868Z,10.00
2019-06-27T10:53:26.712Z,9.57
2019-06-27T10:55:57.786Z,9.10
2019-06-27T10:58:28.523Z,11.73
2019-06-27T11:00:59.211Z,12.00
2019-06-27T11:03:30.210Z,12.73
2019-06-27T11:06:00.912Z,11.50
2019-06-27T11:08:31.669Z,11.10
2019-06-27T11:11:02.426Z,10.57
2019-06-27T11:13:33.191Z,11.70
2019-06-27T11:16:04.029Z,10.20
2019-06-27T11:18:34.748Z,10.57
2019-06-27T11:21:05.603Z,9.63
2019-06-27T11:23:36.302Z,9.50
2019-06-27T11:26:09.407Z,8.67
2019-06-27T11:28:39.510Z,9.77
2019-06-27T11:31:10.358Z,10.40
2019-06-27T11:33:41.561Z,10.30
2019-06-27T11:36:12.560Z,11.67
2019-06-27T11:38:43.272Z,10.47
2019-06-27T11:41:14.063Z,10.93
2019-06-27T11:43:44.808Z,10.40
2019-06-27T11:46:15.723Z,10.27
2019-06-27T11:48:46.468Z,10.00
2019-06-27T11:51:17.148Z,9.97
2019-06-27T11:53:47.867Z,10.90
2019-06-27T11:56:18.594Z,11.70
2019-06-27T11:58:49.293Z,11.40
2019-06-27T12:01:20.150Z,11.03
2019-06-27T12:03:50.873Z,12.07
2019-06-27T12:06:21.728Z,10.63
2019-06-27T12:08:52.469Z,11.40
2019-06-27T12:11:23.164Z,9.80
2019-06-27T12:13:54.843Z,10.60
2019-06-27T12:16:25.560Z,11.07
2019-06-27T12:18:56.299Z,12.57
2019-06-27T12:21:27.024Z,13.07
2019-06-27T12:23:58.143Z,13.60
2019-06-27T12:26:28.914Z,13.47
2019-06-27T12:28:59.615Z,13.47
2019-06-27T12:31:30.454Z,13.73
2019-06-27T12:34:06.877Z,13.13
2019-06-27T12:36:33.802Z,11.73
2019-06-27T12:39:04.548Z,13.40
2019-06-27T12:41:36.431Z,13.50
2019-06-27T12:44:07.410Z,13.50
2019-06-27T12:46:38.153Z,13.27
2019-06-27T12:49:08.880Z,13.30
2019-06-27T12:51:39.813Z,13.20
2019-06-27T12:54:10.537Z,12.13
2019-06-27T12:56:41.378Z,12.30
2019-06-27T12:59:12.060Z,12.10
2019-06-27T13:01:42.777Z,11.60
2019-06-27T13:04:23.480Z,11.87
2019-06-27T13:06:46.284Z,11.43
2019-06-27T13:09:17.165Z,11.57
2019-06-27T13:11:47.871Z,10.97
2019-06-27T13:14:18.589Z,10.77
2019-06-27T13:16:49.435Z,10.30
2019-06-27T13:19:20.101Z,11.17
2019-06-27T13:21:51.033Z,10.07
2019-06-27T13:24:21.735Z,10.47
2019-06-27T13:26:52.455Z,9.97
2019-06-27T13:29:26.737Z,11.67
2019-06-27T13:31:55.766Z,10.40
2019-06-27T13:34:39.985Z,11.30
2019-06-27T13:36:59.103Z,9.87
2019-06-27T13:39:29.788Z,10.50
2019-06-27T13:42:00.533Z,9.80
2019-06-27T13:44:31.551Z,11.07
2019-06-27T13:47:02.278Z,11.30
2019-06-27T13:49:32.975Z,9.93
2019-06-27T13:52:03.797Z,9.90
2019-06-27T13:54:34.531Z,10.77
2019-06-27T13:57:05.699Z,8.93
2019-06-27T13:59:37.465Z,10.50
2019-06-27T14:02:08.112Z,9.67
2019-06-27T14:04:39.042Z,11.20
2019-06-27T14:07:09.811Z,12.10
2019-06-27T14:09:52.224Z,10.67
2019-06-27T14:12:12.903Z,10.97
2019-06-27T14:14:58.790Z,10.90
2019-06-27T14:17:16.109Z,11.20
2019-06-27T14:19:50.679Z,10.00
2019-06-27T14:22:32.746Z,11.80
2019-06-27T14:24:52.279Z,11.37
2019-06-27T14:27:23.052Z,10.53
2019-06-27T14:29:56.583Z,10.87
2019-06-27T14:32:26.802Z,10.10
2019-06-27T14:35:14.034Z,10.50
2019-06-27T14:37:30.113Z,9.20
2019-06-27T14:40:00.821Z,8.70
2019-06-27T14:42:31.561Z,8.93
2019-06-27T14:45:02.423Z,9.80
2019-06-27T14:47:33.125Z,9.60
2019-06-27T14:50:04.381Z,9.60
2019-06-27T14:52:35.275Z,10.20
2019-06-27T14:55:07.229Z,10.27
2019-06-27T14:57:38.072Z,9.53
2019-06-27T15:00:09.015Z,9.70
2019-06-27T15:02:39.853Z,8.30
2019-06-27T15:05:10.572Z,8.80
2019-06-27T15:07:41.277Z,6.63
2019-06-27T15:10:12.709Z,8.13
2019-06-27T15:12:56.342Z,7.33
2019-06-27T15:15:17.335Z,7.90
2019-06-27T15:17:48.041Z,7.27
2019-06-27T15:20:19.060Z,7.13
2019-06-27T15:22:49.762Z,6.93
2019-06-27T15:25:20.550Z,7.60
2019-06-27T15:27:51.769Z,6.53
2019-06-27T15:30:22.598Z,7.30
2019-06-27T15:32:54.286Z,6.70
2019-06-27T15:35:25.099Z,5.60
2019-06-27T15:37:55.849Z,6.17
2019-06-27T15:40:26.591Z,6.07
2019-06-27T15:42:57.785Z,6.50
2019-06-27T15:45:28.673Z,6.03
2019-06-27T15:47:59.369Z,6.00
2019-06-27T15:50:30.196Z,6.50
2019-06-27T15:53:00.921Z,6.57
2019-06-27T15:55:31.628Z,6.53
2019-06-27T15:58:02.834Z,6.40
2019-06-27T16:00:39.159Z,6.03
2019-06-27T16:03:08.445Z,5.90
2019-06-27T16:05:39.257Z,6.10
2019-06-27T16:08:10.188Z,5.93
2019-06-27T16:10:40.932Z,5.23
2019-06-27T16:13:11.757Z,6.47
2019-06-27T16:15:42.436Z,5.83
2019-06-27T16:18:13.274Z,5.47
2019-06-27T16:20:44.051Z,4.93
2019-06-27T16:23:15.852Z,4.90
2019-06-27T16:25:47.626Z,5.20
2019-06-27T16:28:18.373Z,5.50
2019-06-27T16:30:49.132Z,4.40
2019-06-27T16:33:19.937Z,4.50
2019-06-27T16:35:50.664Z,4.03
2019-06-27T16:38:22.429Z,3.93
2019-06-27T16:40:53.178Z,3.77
2019-06-27T16:43:23.966Z,3.80
2019-06-27T16:45:54.802Z,3.80
2019-06-27T16:48:25.550Z,3.17
2019-06-27T16:50:56.350Z,3.10
2019-06-27T16:53:28.243Z,3.30
2019-06-27T16:55:58.956Z,3.10
2019-06-27T16:58:29.814Z,2.80
2019-06-27T17:01:00.929Z,3.13
2019-06-27T17:03:32.675Z,2.97
2019-06-27T17:06:03.485Z,2.70
2019-06-27T17:08:34.384Z,4.53
2019-06-27T17:11:05.084Z,2.90
2019-06-27T17:13:35.881Z,2.30
2019-06-27T17:16:06.631Z,2.00
2019-06-27T17:18:37.393Z,2.20
2019-06-27T17:21:08.350Z,2.10
2019-06-27T17:23:39.226Z,2.00
2019-06-27T17:26:11.698Z,1.93
2019-06-27T17:28:42.348Z,1.80
2019-06-27T17:31:13.230Z,1.60
2019-06-27T17:33:44.166Z,1.70
2019-06-27T17:36:14.900Z,1.80
2019-06-27T17:38:45.948Z,1.70
2019-06-27T17:41:16.697Z,1.60
2019-06-27T17:43:47.403Z,1.50
2019-06-27T17:46:18.221Z,1.70
2019-06-27T17:48:48.901Z,1.60
2019-06-27T17:51:19.594Z,1.77
2019-06-27T17:53:50.262Z,1.30
2019-06-27T17:56:20.976Z,1.40
2019-06-27T17:58:51.673Z,1.30
2019-06-27T18:01:22.563Z,1.10
2019-06-27T18:03:53.633Z,1.20
2019-06-27T18:06:24.590Z,1.50
2019-06-27T18:08:55.355Z,3.83
2019-06-27T18:11:26.072Z,2.10
2019-06-27T18:13:56.764Z,2.77
2019-06-27T18:16:27.499Z,1.60
2019-06-27T18:19:00.757Z,1.33
2019-06-27T18:21:31.063Z,1.90
2019-06-27T18:24:01.877Z,1.00
2019-06-27T18:26:32.914Z,1.10
2019-06-27T18:29:03.673Z,1.20
2019-06-27T18:31:34.487Z,1.10
2019-06-27T18:34:05.282Z,1.00
2019-06-27T18:36:36.052Z,1.00
2019-06-27T18:39:07.095Z,1.10
2019-06-27T18:41:37.938Z,1.00
2019-06-27T18:44:08.627Z,1.47
2019-06-27T18:46:39.660Z,1.00
2019-06-27T18:49:10.289Z,1.10
2019-06-27T18:51:42.079Z,1.00
2019-06-27T18:54:13.004Z,1.00
2019-06-27T18:56:43.998Z,1.20
2019-06-27T18:59:14.731Z,1.30
2019-06-27T19:01:45.571Z,1.20
2019-06-27T19:04:16.239Z,1.10
2019-06-27T19:06:46.994Z,1.00
2019-06-27T19:09:17.753Z,1.10
2019-06-27T19:11:48.488Z,1.03
2019-06-27T19:14:19.467Z,1.20
2019-06-27T19:16:50.223Z,1.00
2019-06-27T19:19:23.572Z,1.13
2019-06-27T19:22:22.160Z,1.00
2019-06-27T19:25:07.874Z,0.83
2019-06-27T19:27:38.677Z,1.00
2019-06-27T19:30:09.522Z,1.23
2019-06-27T19:32:41.159Z,1.23
2019-06-27T19:35:12.164Z,1.00
2019-06-27T19:37:42.949Z,1.10
2019-06-27T19:40:13.919Z,1.07
2019-06-27T19:42:44.683Z,1.10
2019-06-27T19:45:15.498Z,1.10
2019-06-27T19:47:46.203Z,1.07
2019-06-27T19:50:17.414Z,1.20
2019-06-27T19:52:48.209Z,1.10
2019-06-27T19:55:19.481Z,1.20
2019-06-27T19:57:50.349Z,1.80
2019-06-27T20:00:21.552Z,1.23
2019-06-27T20:02:52.434Z,1.47
2019-06-27T20:05:23.140Z,1.63
2019-06-27T20:07:54.117Z,1.17
2019-06-27T20:10:25.146Z,1.30
2019-06-27T20:12:55.877Z,1.30
2019-06-27T20:15:26.650Z,1.50
2019-06-27T20:17:57.364Z,1.20
2019-06-27T20:20:28.305Z,1.33
2019-06-27T20:22:59.080Z,1.50
2019-06-27T20:25:29.891Z,1.10
2019-06-27T20:28:00.582Z,1.17
2019-06-27T20:30:31.340Z,1.33
2019-06-27T20:33:02.074Z,1.20
2019-06-27T20:35:33.027Z,1.23
2019-06-27T20:38:03.946Z,1.10
2019-06-27T20:40:34.686Z,1.10
2019-06-27T20:43:05.639Z,1.30
2019-06-27T20:45:36.631Z,1.20
2019-06-27T20:48:07.357Z,1.10
2019-06-27T20:50:38.096Z,1.23
2019-06-27T20:53:08.773Z,1.20
2019-06-27T20:55:39.592Z,1.17
2019-06-27T20:58:10.535Z,1.00
2019-06-27T21:00:41.535Z,1.10
2019-06-27T21:03:12.912Z,1.47
2019-06-27T21:05:43.758Z,1.10
2019-06-27T21:08:14.463Z,1.40
2019-06-27T21:10:45.543Z,1.13
2019-06-27T21:13:16.206Z,1.10
2019-06-27T21:15:50.243Z,1.10
2019-06-27T21:18:20.456Z,1.30
2019-06-27T21:20:51.232Z,1.13
2019-06-27T21:23:22.363Z,1.27
2019-06-27T21:25:53.557Z,1.10
2019-06-27T21:28:24.262Z,1.30
2019-06-27T21:30:54.979Z,1.20
2019-06-27T21:33:26.035Z,1.40
2019-06-27T21:35:56.941Z,1.10
2019-06-27T21:38:27.629Z,1.17
2019-06-27T21:40:58.469Z,1.53
2019-06-27T21:43:29.212Z,1.60
2019-06-27T21:46:00.008Z,1.80
2019-06-27T21:48:30.682Z,2.30
2019-06-27T21:51:01.421Z,2.07
2019-06-27T21:53:32.115Z,2.20
2019-06-27T21:56:02.834Z,2.70
2019-06-27T21:58:33.710Z,2.40
2019-06-27T22:02:41.570Z,1.60
2019-06-27T22:05:13.168Z,1.70
2019-06-27T22:07:44.025Z,1.60
2019-06-27T22:10:15.317Z,1.80
2019-06-27T22:12:46.503Z,2.00
2019-06-27T22:15:17.977Z,1.50
2019-06-27T22:17:48.701Z,1.43
2019-06-27T22:20:19.919Z,1.50
2019-06-27T22:22:50.715Z,1.60
2019-06-27T22:25:21.400Z,1.73
2019-06-27T22:27:52.341Z,1.90
2019-06-27T22:30:23.139Z,1.50
2019-06-27T22:32:53.913Z,1.50
2019-06-27T22:35:24.662Z,1.50
2019-06-27T22:38:13.077Z,1.70
2019-06-27T22:41:01.698Z,1.43
2019-06-27T22:43:49.995Z,1.40
2019-06-27T22:46:38.594Z,1.30
2019-06-27T22:49:08.957Z,1.63
2019-06-27T22:51:56.670Z,1.60
2019-06-27T22:54:27.654Z,1.50
2019-06-27T22:56:58.392Z,1.37
2019-06-27T22:59:29.449Z,1.50
2019-06-27T23:02:00.366Z,1.57
2019-06-27T23:04:31.277Z,1.60
2019-06-27T23:07:02.355Z,1.57
2019-06-27T23:09:33.108Z,1.40
2019-06-27T23:12:04.156Z,1.40
2019-06-27T23:14:35.527Z,1.50
2019-06-27T23:17:06.194Z,1.23
2019-06-27T23:19:36.923Z,1.50
2019-06-27T23:22:08.011Z,1.37
2019-06-27T23:24:38.947Z,1.53
2019-06-27T23:27:09.699Z,1.10
2019-06-27T23:29:40.486Z,1.60
2019-06-27T23:32:11.208Z,1.50
2019-06-27T23:34:41.994Z,1.33
2019-06-27T23:37:31.762Z,1.90
2019-06-27T23:40:13.591Z,1.50
2019-06-27T23:42:35.054Z,1.67
2019-06-27T23:45:06.328Z,1.80
2019-06-27T23:47:37.320Z,1.47
2019-06-27T23:50:09.685Z,1.53
2019-06-27T23:52:40.544Z,1.67
2019-06-27T23:55:12.687Z,1.80
2019-06-27T23:57:43.449Z,1.50
